createdAt,value
2023-04-22T00:01:00.373Z,11.25
2023-04-22T00:02:32.998Z,11.15
2023-04-22T00:04:05.455Z,11.43
2023-04-22T00:05:38.239Z,10.30
2023-04-22T00:07:10.586Z,11.00
2023-04-22T00:08:42.656Z,11.35
2023-04-22T00:10:14.781Z,12.45
2023-04-22T00:11:46.925Z,11.63
2023-04-22T00:13:19.137Z,13.15
2023-04-22T00:14:51.333Z,10.05
2023-04-22T00:16:23.531Z,11.43
2023-04-22T00:17:55.814Z,11.75
2023-04-22T00:19:28.613Z,11.52
2023-04-22T00:21:01.233Z,11.73
2023-04-22T00:22:33.310Z,12.93
2023-04-22T00:24:05.632Z,11.35
2023-04-22T00:25:37.792Z,11.95
2023-04-22T00:27:10.023Z,12.80
2023-04-22T00:28:42.141Z,11.15
2023-04-22T00:30:14.408Z,12.60
2023-04-22T00:31:46.666Z,12.65
2023-04-22T00:33:18.814Z,12.23
2023-04-22T00:34:51.039Z,12.05
2023-04-22T00:36:23.137Z,10.52
2023-04-22T00:37:55.409Z,12.30
2023-04-22T00:39:27.636Z,14.65
2023-04-22T00:40:59.907Z,12.27
2023-04-22T00:42:32.145Z,11.48
2023-04-22T00:44:04.449Z,11.60
2023-04-22T00:45:37.797Z,11.50
2023-04-22T00:47:10.593Z,9.43
2023-04-22T00:48:42.808Z,11.52
2023-04-22T00:50:15.997Z,12.82
2023-04-22T00:51:48.098Z,10.75
2023-04-22T00:53:20.206Z,11.98
2023-04-22T00:54:52.799Z,10.75
2023-04-22T00:56:28.824Z,14.63
2023-04-22T00:58:01.744Z,13.15
2023-04-22T00:59:34.054Z,11.68
2023-04-22T01:01:06.202Z,11.95
2023-04-22T01:02:41.729Z,10.85
2023-04-22T01:04:14.874Z,10.45
2023-04-22T01:05:49.143Z,11.77
2023-04-22T01:07:22.162Z,11.60
2023-04-22T01:08:54.695Z,13.02
2023-04-22T01:10:26.805Z,10.63
2023-04-22T01:11:58.938Z,12.15
2023-04-22T01:13:31.063Z,11.63
2023-04-22T01:15:04.961Z,12.23
2023-04-22T01:16:39.416Z,10.98
2023-04-22T01:18:11.736Z,10.57
2023-04-22T01:19:44.370Z,11.35
2023-04-22T01:21:17.500Z,12.98
2023-04-22T01:22:51.397Z,11.43
2023-04-22T01:24:23.590Z,11.38
2023-04-22T01:25:56.210Z,12.70
2023-04-22T01:27:28.560Z,10.57
2023-04-22T01:29:02.705Z,11.30
2023-04-22T01:30:35.061Z,12.88
2023-04-22T01:32:07.363Z,16.10
2023-04-22T01:33:39.493Z,12.95
2023-04-22T01:35:11.763Z,13.70
2023-04-22T01:36:45.066Z,13.32
2023-04-22T01:38:17.188Z,12.50
2023-04-22T01:39:49.620Z,11.82
2023-04-22T01:41:22.821Z,11.98
2023-04-22T01:42:54.948Z,13.57
2023-04-22T01:44:27.378Z,13.52
2023-04-22T01:46:02.452Z,13.15
2023-04-22T01:47:34.585Z,12.23
2023-04-22T01:49:06.728Z,12.82
2023-04-22T01:50:38.808Z,12.27
2023-04-22T01:52:11.060Z,11.23
2023-04-22T01:53:43.184Z,12.50
2023-04-22T01:55:15.604Z,12.55
2023-04-22T01:56:54.886Z,12.68
2023-04-22T01:58:30.204Z,10.48
2023-04-22T02:00:02.707Z,11.00
2023-04-22T02:01:34.880Z,11.10
2023-04-22T02:03:07.213Z,11.73
2023-04-22T02:04:39.645Z,13.30
2023-04-22T02:06:12.018Z,12.48
2023-04-22T02:07:44.184Z,11.80
2023-04-22T02:09:16.287Z,11.50
2023-04-22T02:10:48.346Z,10.32
2023-04-22T02:12:20.514Z,11.05
2023-04-22T02:13:52.607Z,11.77
2023-04-22T02:15:24.668Z,10.82
2023-04-22T02:16:56.752Z,15.57
2023-04-22T02:18:28.872Z,12.07
2023-04-22T02:20:00.971Z,10.63
2023-04-22T02:21:33.299Z,12.00
2023-04-22T02:23:05.822Z,10.95
2023-04-22T02:24:37.960Z,11.10
2023-04-22T02:26:10.544Z,11.18
2023-04-22T02:27:45.116Z,11.35
2023-04-22T02:29:17.634Z,13.93
2023-04-22T02:30:49.686Z,9.40
2023-04-22T02:32:21.825Z,12.60
2023-04-22T02:33:53.935Z,11.50
2023-04-22T02:35:26.096Z,13.35
2023-04-22T02:36:58.196Z,9.55
2023-04-22T02:38:30.319Z,10.32
2023-04-22T02:40:02.589Z,12.13
2023-04-22T02:41:34.718Z,10.63
2023-04-22T02:43:06.857Z,10.82
2023-04-22T02:44:39.076Z,11.45
2023-04-22T02:46:13.566Z,10.95
2023-04-22T02:47:45.682Z,10.35
2023-04-22T02:49:17.873Z,11.77
2023-04-22T02:50:50.036Z,12.18
2023-04-22T02:52:22.254Z,10.98
2023-04-22T02:53:54.470Z,10.05
2023-04-22T02:55:26.629Z,11.43
2023-04-22T02:56:58.843Z,14.90
2023-04-22T02:58:31.099Z,10.90
2023-04-22T03:00:03.355Z,11.07
2023-04-22T03:01:35.521Z,11.65
2023-04-22T03:03:07.818Z,11.00
2023-04-22T03:04:40.085Z,13.90
2023-04-22T03:06:12.295Z,10.93
2023-04-22T03:07:45.044Z,10.35
2023-04-22T03:09:17.837Z,11.25
2023-04-22T03:10:50.017Z,10.13
2023-04-22T03:12:22.574Z,13.60
2023-04-22T03:13:56.975Z,21.40
2023-04-22T03:15:32.154Z,11.82
2023-04-22T03:17:04.315Z,9.70
2023-04-22T03:18:36.624Z,10.90
2023-04-22T03:20:09.401Z,10.88
2023-04-22T03:21:41.522Z,11.02
2023-04-22T03:23:13.588Z,11.35
2023-04-22T03:24:48.009Z,10.52
2023-04-22T03:26:20.228Z,10.85
2023-04-22T03:27:52.337Z,12.70
2023-04-22T03:29:24.443Z,9.77
2023-04-22T03:30:56.681Z,10.82
2023-04-22T03:32:28.853Z,12.02
2023-04-22T03:34:01.761Z,10.15
2023-04-22T03:35:33.927Z,10.82
2023-04-22T03:37:06.108Z,12.45
2023-04-22T03:38:38.146Z,11.60
2023-04-22T03:40:12.127Z,11.52
2023-04-22T03:41:45.817Z,12.20
2023-04-22T03:43:17.931Z,10.48
2023-04-22T03:44:50.050Z,10.43
2023-04-22T03:46:22.377Z,12.05
2023-04-22T03:47:54.638Z,9.20
2023-04-22T03:49:26.808Z,9.48
2023-04-22T03:50:59.088Z,9.90
2023-04-22T03:52:31.278Z,12.82
2023-04-22T03:54:03.474Z,9.23
2023-04-22T03:55:35.710Z,11.40
2023-04-22T03:57:07.884Z,11.52
2023-04-22T03:58:40.069Z,11.88
2023-04-22T04:00:12.842Z,12.80
2023-04-22T04:01:47.217Z,12.25
2023-04-22T04:03:19.465Z,11.48
2023-04-22T04:04:52.061Z,13.60
2023-04-22T04:06:24.536Z,14.83
2023-04-22T04:07:57.022Z,15.35
2023-04-22T04:09:29.182Z,16.13
2023-04-22T04:11:01.339Z,15.48
2023-04-22T04:12:33.556Z,14.13
2023-04-22T04:14:05.848Z,13.45
2023-04-22T04:15:38.098Z,19.17
2023-04-22T04:17:10.221Z,17.77
2023-04-22T04:18:42.580Z,14.82
2023-04-22T04:20:17.796Z,11.70
2023-04-22T04:21:49.988Z,12.43
2023-04-22T04:23:22.114Z,13.50
2023-04-22T04:24:56.326Z,12.43
2023-04-22T04:26:28.454Z,16.05
2023-04-22T04:28:02.016Z,14.52
2023-04-22T04:29:34.101Z,12.90
2023-04-22T04:31:06.300Z,13.63
2023-04-22T04:32:38.447Z,12.82
2023-04-22T04:34:10.744Z,11.55
2023-04-22T04:35:43.791Z,13.82
2023-04-22T04:37:17.248Z,11.70
2023-04-22T04:40:22.515Z,10.93
2023-04-22T04:41:59.073Z,12.25
2023-04-22T04:43:31.378Z,12.25
2023-04-22T04:45:03.959Z,11.75
2023-04-22T04:46:38.250Z,12.57
2023-04-22T04:48:10.469Z,12.20
2023-04-22T04:49:44.100Z,13.23
2023-04-22T04:51:18.227Z,13.38
2023-04-22T04:52:53.008Z,11.80
2023-04-22T04:54:25.250Z,12.65
2023-04-22T04:55:57.406Z,16.90
2023-04-22T04:57:29.522Z,14.38
2023-04-22T04:59:01.654Z,12.95
2023-04-22T05:00:33.848Z,14.15
2023-04-22T05:02:06.214Z,13.82
2023-04-22T05:03:38.687Z,16.00
2023-04-22T05:05:11.044Z,18.40
2023-04-22T05:06:43.356Z,16.05
2023-04-22T05:08:15.639Z,15.13
2023-04-22T05:09:47.826Z,15.68
2023-04-22T05:11:19.934Z,13.60
2023-04-22T05:12:52.243Z,13.43
2023-04-22T05:14:24.426Z,15.20
2023-04-22T05:15:56.759Z,18.02
2023-04-22T05:17:29.127Z,15.00
2023-04-22T05:19:01.968Z,15.00
2023-04-22T05:20:36.163Z,14.10
2023-04-22T05:22:08.546Z,13.38
2023-04-22T05:23:40.898Z,12.73
2023-04-22T05:25:13.056Z,17.17
2023-04-22T05:26:45.232Z,14.05
2023-04-22T05:28:17.320Z,11.55
2023-04-22T05:29:49.500Z,15.68
2023-04-22T05:31:21.899Z,16.35
2023-04-22T05:32:57.168Z,15.10
2023-04-22T05:34:29.364Z,14.18
2023-04-22T05:36:01.554Z,13.68
2023-04-22T05:37:33.775Z,16.10
2023-04-22T05:39:06.513Z,12.07
2023-04-22T05:40:38.677Z,12.77
2023-04-22T05:42:10.869Z,14.13
2023-04-22T05:43:43.034Z,13.32
2023-04-22T05:45:16.165Z,14.13
2023-04-22T05:46:48.417Z,19.92
2023-04-22T05:48:20.576Z,11.60
2023-04-22T05:49:55.212Z,11.88
2023-04-22T05:51:27.362Z,13.05
2023-04-22T05:52:59.541Z,15.02
2023-04-22T05:54:31.786Z,16.92
2023-04-22T05:56:03.909Z,12.43
2023-04-22T05:57:36.105Z,11.95
2023-04-22T05:59:08.312Z,11.45
2023-04-22T06:00:40.509Z,12.80
2023-04-22T06:02:12.989Z,13.63
2023-04-22T06:03:45.469Z,14.10
2023-04-22T06:05:17.873Z,13.07
2023-04-22T06:06:50.373Z,11.27
2023-04-22T06:08:22.573Z,12.75
2023-04-22T06:10:03.806Z,10.05
2023-04-22T06:11:40.898Z,9.82
2023-04-22T06:13:13.080Z,11.75
2023-04-22T06:14:45.150Z,10.18
2023-04-22T06:16:17.286Z,11.77
2023-04-22T06:17:49.552Z,9.63
2023-04-22T06:19:21.884Z,11.98
2023-04-22T06:20:54.306Z,12.55
2023-04-22T06:22:26.414Z,13.27
2023-04-22T06:23:58.859Z,12.27
2023-04-22T06:25:31.124Z,11.67
2023-04-22T06:27:09.210Z,10.23
2023-04-22T06:28:41.430Z,11.43
2023-04-22T06:30:13.825Z,10.45
2023-04-22T06:31:46.183Z,10.57
2023-04-22T06:33:18.358Z,10.02
2023-04-22T06:34:50.484Z,9.98
2023-04-22T06:36:22.745Z,11.45
2023-04-22T06:37:54.866Z,13.88
2023-04-22T06:39:26.984Z,14.18
2023-04-22T06:41:01.872Z,11.55
2023-04-22T06:42:33.973Z,12.73
2023-04-22T06:44:06.095Z,11.88
2023-04-22T06:45:38.308Z,10.73
2023-04-22T06:47:10.421Z,13.77
2023-04-22T06:48:43.104Z,12.30
2023-04-22T06:50:15.406Z,10.50
2023-04-22T06:51:47.626Z,11.02
2023-04-22T06:53:19.747Z,14.13
2023-04-22T06:54:51.892Z,11.25
2023-04-22T06:56:23.988Z,10.93
2023-04-22T06:57:57.113Z,11.35
2023-04-22T06:59:29.238Z,11.35
2023-04-22T07:01:01.336Z,13.50
2023-04-22T07:02:33.559Z,12.45
2023-04-22T07:04:05.853Z,9.82
2023-04-22T07:05:39.686Z,10.05
2023-04-22T07:07:12.110Z,10.80
2023-04-22T07:08:44.360Z,10.63
2023-04-22T07:10:16.570Z,11.77
2023-04-22T07:11:48.828Z,13.13
2023-04-22T07:13:21.012Z,11.90
2023-04-22T07:14:53.073Z,12.30
2023-04-22T07:16:25.713Z,10.45
2023-04-22T07:17:57.842Z,11.43
2023-04-22T07:19:31.592Z,10.45
2023-04-22T07:21:05.278Z,10.68
2023-04-22T07:22:37.454Z,12.35
2023-04-22T07:24:12.394Z,11.93
2023-04-22T07:25:44.556Z,10.70
2023-04-22T07:27:16.901Z,10.68
2023-04-22T07:28:49.061Z,9.88
2023-04-22T07:30:21.163Z,12.30
2023-04-22T07:31:53.441Z,12.02
2023-04-22T07:33:25.722Z,11.30
2023-04-22T07:34:57.862Z,12.10
2023-04-22T07:36:30.154Z,10.75
2023-04-22T07:38:02.245Z,11.75
2023-04-22T07:39:34.368Z,11.70
2023-04-22T07:41:06.473Z,14.13
2023-04-22T07:42:39.964Z,11.88
2023-04-22T07:45:49.228Z,12.30
2023-04-22T07:47:21.720Z,12.00
2023-04-22T07:48:53.882Z,12.10
2023-04-22T07:50:26.131Z,14.10
2023-04-22T07:51:58.246Z,11.88
2023-04-22T07:53:30.352Z,13.98
2023-04-22T07:55:02.663Z,13.18
2023-04-22T07:56:35.149Z,13.40
2023-04-22T07:58:07.389Z,12.60
2023-04-22T07:59:39.949Z,12.90
2023-04-22T08:01:12.337Z,12.65
2023-04-22T08:02:44.718Z,12.10
2023-04-22T08:04:17.981Z,14.82
2023-04-22T08:05:50.326Z,13.38
2023-04-22T08:08:57.783Z,12.70
2023-04-22T08:10:29.915Z,12.02
2023-04-22T08:12:03.235Z,12.68
2023-04-22T08:13:35.384Z,13.45
2023-04-22T08:15:07.934Z,14.15
2023-04-22T08:16:40.576Z,13.90
2023-04-22T08:18:12.683Z,12.70
2023-04-22T08:19:45.889Z,14.73
2023-04-22T08:21:18.137Z,13.52
2023-04-22T08:22:51.962Z,14.00
2023-04-22T08:24:24.196Z,12.90
2023-04-22T08:25:56.427Z,12.38
2023-04-22T08:27:28.654Z,14.77
2023-04-22T08:29:01.518Z,15.95
2023-04-22T08:30:33.683Z,13.75
2023-04-22T08:32:05.861Z,15.15
2023-04-22T08:33:38.028Z,13.85
2023-04-22T08:35:10.357Z,13.15
2023-04-22T08:36:42.944Z,15.00
2023-04-22T08:38:15.192Z,13.88
2023-04-22T08:39:47.345Z,14.18
2023-04-22T08:41:19.845Z,16.67
2023-04-22T08:42:52.642Z,17.07
2023-04-22T08:44:25.073Z,16.65
2023-04-22T08:45:57.418Z,18.85
2023-04-22T08:47:29.767Z,16.17
2023-04-22T08:49:04.953Z,15.75
2023-04-22T08:50:39.838Z,15.95
2023-04-22T08:52:13.195Z,16.10
2023-04-22T08:55:17.533Z,14.43
2023-04-22T08:56:51.219Z,15.65
2023-04-22T08:58:24.070Z,15.68
2023-04-22T08:59:57.214Z,15.05
2023-04-22T09:01:32.110Z,15.10
2023-04-22T09:03:06.798Z,15.02
2023-04-22T09:04:39.078Z,14.82
2023-04-22T09:06:12.065Z,14.77
2023-04-22T09:07:44.598Z,13.13
2023-04-22T09:09:16.696Z,14.73
2023-04-22T09:10:49.110Z,13.13
2023-04-22T09:12:21.732Z,13.80
2023-04-22T09:13:55.245Z,14.32
2023-04-22T09:15:28.163Z,12.45
2023-04-22T09:17:00.374Z,14.45
2023-04-22T09:18:47.867Z,13.73
2023-04-22T09:20:20.538Z,11.90
2023-04-22T09:21:54.439Z,12.95
2023-04-22T09:23:27.260Z,12.95
2023-04-22T09:24:59.422Z,9.98
2023-04-22T09:26:31.802Z,11.88
2023-04-22T09:28:04.010Z,11.25
2023-04-22T09:29:36.199Z,11.43
2023-04-22T09:31:14.706Z,12.40
2023-04-22T09:32:55.268Z,10.63
2023-04-22T09:34:28.327Z,12.48
2023-04-22T09:36:00.528Z,11.55
2023-04-22T09:37:46.635Z,10.20
2023-04-22T09:39:21.390Z,8.90
2023-04-22T09:40:53.499Z,9.82
2023-04-22T09:42:25.635Z,10.02
2023-04-22T09:43:58.846Z,11.93
2023-04-22T09:45:33.314Z,7.95
2023-04-22T09:47:05.468Z,10.93
2023-04-22T09:48:43.879Z,10.45
2023-04-22T09:50:15.967Z,9.88
2023-04-22T09:51:49.907Z,9.20
2023-04-22T09:53:22.848Z,8.57
2023-04-22T09:54:55.219Z,8.60
2023-04-22T09:56:54.094Z,9.80
2023-04-22T09:58:28.397Z,8.30
2023-04-22T10:00:00.690Z,9.77
2023-04-22T10:01:37.996Z,9.68
2023-04-22T10:03:11.228Z,8.05
2023-04-22T10:06:15.707Z,9.20
2023-04-22T10:07:48.070Z,8.70
2023-04-22T10:09:22.700Z,7.57
2023-04-22T10:10:54.842Z,8.73
2023-04-22T10:12:35.204Z,8.32
2023-04-22T10:14:11.022Z,7.30
2023-04-22T10:15:46.641Z,8.70
2023-04-22T10:17:19.581Z,8.65
2023-04-22T10:18:52.895Z,7.07
2023-04-22T10:20:26.384Z,7.45
2023-04-22T10:23:34.415Z,7.70
2023-04-22T10:25:06.785Z,7.57
2023-04-22T10:26:40.280Z,8.57
2023-04-22T10:28:13.174Z,7.15
2023-04-22T10:29:45.365Z,8.32
2023-04-22T10:31:24.384Z,7.50
2023-04-22T10:32:56.714Z,7.65
2023-04-22T10:34:32.828Z,6.55
2023-04-22T10:36:17.028Z,9.70
2023-04-22T10:37:49.800Z,6.60
2023-04-22T10:39:22.522Z,7.85
2023-04-22T10:41:01.109Z,8.07
2023-04-22T10:42:33.300Z,9.40
2023-04-22T10:44:08.943Z,6.00
2023-04-22T10:45:41.069Z,7.32
2023-04-22T10:47:13.151Z,5.88
2023-04-22T10:48:51.144Z,6.00
2023-04-22T10:50:28.068Z,6.55
2023-04-22T10:52:08.213Z,5.53
2023-04-22T10:53:43.123Z,7.25
2023-04-22T10:55:15.295Z,7.82
2023-04-22T10:57:09.344Z,6.72
2023-04-22T10:58:41.462Z,4.18
2023-04-22T11:00:23.997Z,4.72
2023-04-22T11:01:56.393Z,5.32
2023-04-22T11:03:30.341Z,5.47
2023-04-22T11:05:25.329Z,6.47
2023-04-22T11:07:31.122Z,5.70
2023-04-22T11:09:11.150Z,6.15
2023-04-22T11:10:45.552Z,6.18
2023-04-22T11:12:44.352Z,6.25
2023-04-22T11:14:16.506Z,7.50
2023-04-22T11:15:55.482Z,6.20
2023-04-22T11:17:28.209Z,6.78
2023-04-22T11:19:00.535Z,5.85
2023-04-22T11:20:32.833Z,5.72
2023-04-22T11:22:05.701Z,6.32
2023-04-22T11:23:37.906Z,5.95
2023-04-22T11:25:13.336Z,5.40
2023-04-22T11:26:46.685Z,6.85
2023-04-22T11:30:17.130Z,7.03
2023-04-22T11:31:49.725Z,6.55
2023-04-22T11:33:22.038Z,8.13
2023-04-22T11:34:54.265Z,7.15
2023-04-22T11:36:26.881Z,6.70
2023-04-22T11:38:02.073Z,7.10
2023-04-22T11:39:43.643Z,5.88
2023-04-22T11:41:23.622Z,6.82
2023-04-22T11:42:57.002Z,7.22
2023-04-22T11:46:01.148Z,5.97
2023-04-22T11:47:35.078Z,5.32
2023-04-22T11:49:17.008Z,6.50
2023-04-22T11:50:49.324Z,6.03
2023-04-22T11:52:21.519Z,6.45
2023-04-22T11:53:53.695Z,8.02
2023-04-22T11:55:36.858Z,5.65
2023-04-22T11:57:12.043Z,6.43
2023-04-22T11:58:44.132Z,6.20
2023-04-22T12:00:18.038Z,6.75
2023-04-22T12:01:50.197Z,6.10
2023-04-22T12:03:26.036Z,6.43
2023-04-22T12:04:59.359Z,6.65
2023-04-22T12:06:32.749Z,5.72
2023-04-22T12:11:12.841Z,8.57
2023-04-22T12:12:44.965Z,6.80
2023-04-22T12:14:17.058Z,6.88
2023-04-22T12:15:50.210Z,5.38
2023-04-22T12:17:25.934Z,6.82
2023-04-22T12:18:58.031Z,6.75
2023-04-22T12:20:34.783Z,7.82
2023-04-22T12:22:06.934Z,5.93
2023-04-22T12:23:46.365Z,6.40
2023-04-22T12:25:19.916Z,7.82
2023-04-22T12:26:51.993Z,7.18
2023-04-22T12:28:24.288Z,6.82
2023-04-22T12:29:57.129Z,5.75
2023-04-22T12:31:29.332Z,8.10
2023-04-22T12:33:01.576Z,6.32
2023-04-22T12:34:33.740Z,8.30
2023-04-22T12:36:06.560Z,7.10
2023-04-22T12:37:38.949Z,6.78
2023-04-22T12:39:11.129Z,7.35
2023-04-22T12:40:43.270Z,6.80
2023-04-22T12:42:15.456Z,8.02
2023-04-22T12:43:48.133Z,6.60
2023-04-22T12:45:20.348Z,6.63
2023-04-22T12:46:52.622Z,8.02
2023-04-22T12:48:24.895Z,7.57
2023-04-22T12:49:58.927Z,7.72
2023-04-22T12:51:31.342Z,8.70
2023-04-22T12:53:03.841Z,8.17
2023-04-22T12:54:36.104Z,5.67
2023-04-22T12:56:08.338Z,6.82
2023-04-22T12:57:40.477Z,6.38
2023-04-22T12:59:13.309Z,7.40
2023-04-22T13:00:45.452Z,6.18
2023-04-22T13:02:17.702Z,8.82
2023-04-22T13:03:53.801Z,4.90
2023-04-22T13:05:26.339Z,6.90
2023-04-22T13:06:58.517Z,6.70
2023-04-22T13:08:31.019Z,6.68
2023-04-22T13:10:03.131Z,6.60
2023-04-22T13:11:35.361Z,6.18
2023-04-22T13:14:43.978Z,7.32
2023-04-22T13:16:16.282Z,11.20
2023-04-22T13:17:50.293Z,7.93
2023-04-22T13:19:26.050Z,7.22
2023-04-22T13:20:58.277Z,8.02
2023-04-22T13:22:30.718Z,7.45
2023-04-22T13:24:02.892Z,12.40
2023-04-22T13:25:34.976Z,6.55
2023-04-22T13:27:09.812Z,7.50
2023-04-22T13:28:42.354Z,7.72
2023-04-22T13:30:14.928Z,9.43
2023-04-22T13:31:47.320Z,7.97
2023-04-22T13:33:19.482Z,7.60
2023-04-22T13:34:51.762Z,7.05
2023-04-22T13:36:23.982Z,8.52
2023-04-22T13:37:56.631Z,8.93
2023-04-22T13:39:28.912Z,7.60
2023-04-22T13:41:02.716Z,7.80
2023-04-22T13:42:36.005Z,6.55
2023-04-22T13:44:08.216Z,7.45
2023-04-22T13:45:41.197Z,9.43
2023-04-22T13:47:13.615Z,7.70
2023-04-22T13:48:45.782Z,8.60
2023-04-22T13:50:18.017Z,9.52
2023-04-22T13:51:50.157Z,8.77
2023-04-22T13:53:22.437Z,9.52
2023-04-22T13:54:54.788Z,8.20
2023-04-22T13:56:27.180Z,7.20
2023-04-22T13:57:59.301Z,6.43
2023-04-22T13:59:31.765Z,7.30
2023-04-22T14:01:04.644Z,7.22
2023-04-22T14:02:36.860Z,6.80
2023-04-22T14:04:09.047Z,8.93
2023-04-22T14:05:41.484Z,6.22
2023-04-22T14:07:13.820Z,7.10
2023-04-22T14:08:46.143Z,6.20
2023-04-22T14:10:20.793Z,7.32
2023-04-22T14:11:52.955Z,7.88
2023-04-22T14:13:25.155Z,6.70
2023-04-22T14:14:57.284Z,5.88
2023-04-22T14:16:29.494Z,9.00
2023-04-22T14:18:01.924Z,8.20
2023-04-22T14:19:34.528Z,6.95
2023-04-22T14:21:09.545Z,7.80
2023-04-22T14:22:41.657Z,7.68
2023-04-22T14:24:13.777Z,6.15
2023-04-22T14:25:46.936Z,9.48
2023-04-22T14:27:19.055Z,9.05
2023-04-22T14:28:51.201Z,7.45
2023-04-22T14:30:23.522Z,7.03
2023-04-22T14:31:56.278Z,6.68
2023-04-22T14:33:28.971Z,7.13
2023-04-22T14:35:01.071Z,8.00
2023-04-22T14:36:33.246Z,7.93
2023-04-22T14:38:08.576Z,6.25
2023-04-22T14:39:40.873Z,6.88
2023-04-22T14:41:13.492Z,7.70
2023-04-22T14:42:48.827Z,7.50
2023-04-22T14:44:20.954Z,7.32
2023-04-22T14:45:53.089Z,6.63
2023-04-22T14:47:25.347Z,7.70
2023-04-22T14:48:57.544Z,6.70
2023-04-22T14:50:29.804Z,6.45
2023-04-22T14:52:02.003Z,6.90
2023-04-22T14:53:34.479Z,8.60
2023-04-22T14:55:19.429Z,7.90
2023-04-22T14:56:58.979Z,7.63
2023-04-22T14:58:31.959Z,7.95
2023-04-22T15:00:08.383Z,7.82
2023-04-22T15:01:43.412Z,8.02
2023-04-22T15:03:15.985Z,8.77
2023-04-22T15:04:48.351Z,8.18
2023-04-22T15:06:20.662Z,10.18
2023-04-22T15:07:52.932Z,12.82
2023-04-22T15:09:25.035Z,8.32
2023-04-22T15:10:57.406Z,7.43
2023-04-22T15:12:29.649Z,7.10
2023-04-22T15:14:01.874Z,7.93
2023-04-22T15:15:34.043Z,7.20
2023-04-22T15:17:06.498Z,7.97
2023-04-22T15:18:38.839Z,8.52
2023-04-22T15:20:12.289Z,8.13
2023-04-22T15:21:44.438Z,7.88
2023-04-22T15:23:16.698Z,8.00
2023-04-22T15:24:48.875Z,9.90
2023-04-22T15:26:21.220Z,8.95
2023-04-22T15:27:56.859Z,10.25
2023-04-22T15:29:29.509Z,8.25
2023-04-22T15:31:01.851Z,8.35
2023-04-22T15:32:34.378Z,9.15
2023-04-22T15:34:06.936Z,8.63
2023-04-22T15:35:39.133Z,8.45
2023-04-22T15:37:13.460Z,10.10
2023-04-22T15:38:45.765Z,9.60
2023-04-22T15:40:17.994Z,8.95
2023-04-22T15:41:50.188Z,9.25
2023-04-22T15:43:22.266Z,8.48
2023-04-22T15:44:54.330Z,9.18
2023-04-22T15:46:28.942Z,7.28
2023-04-22T15:48:01.128Z,11.88
2023-04-22T15:49:33.248Z,9.20
2023-04-22T15:51:05.382Z,9.60
2023-04-22T15:52:38.271Z,9.65
2023-04-22T15:54:10.814Z,8.40
2023-04-22T15:55:42.926Z,8.38
2023-04-22T20:33:01.097Z,10.70
2023-04-22T20:34:34.107Z,12.73
2023-04-22T20:36:07.666Z,13.90
2023-04-22T20:37:40.366Z,14.88
2023-04-22T20:39:14.545Z,10.25
2023-04-22T20:40:47.341Z,13.73
2023-04-22T20:42:20.717Z,11.25
2023-04-22T20:43:53.247Z,9.32
2023-04-22T20:45:26.353Z,9.88
2023-04-22T20:46:59.288Z,10.50
2023-04-22T20:48:31.678Z,10.15
2023-04-22T20:50:04.668Z,11.60
2023-04-22T20:51:36.873Z,10.25
2023-04-22T20:53:08.991Z,11.02
2023-04-22T20:54:41.562Z,13.85
2023-04-22T20:56:13.795Z,11.93
2023-04-22T20:57:45.972Z,9.65
2023-04-22T20:59:18.072Z,10.02
2023-04-22T21:00:50.262Z,11.68
2023-04-22T21:02:22.773Z,13.10
2023-04-22T21:03:56.185Z,12.68
2023-04-22T21:07:04.406Z,12.70
2023-04-22T21:08:39.588Z,10.52
2023-04-22T21:10:12.116Z,10.88
2023-04-22T21:11:44.439Z,9.20
2023-04-22T21:13:17.414Z,10.32
2023-04-22T21:14:49.970Z,10.50
2023-04-22T21:16:30.223Z,9.77
2023-04-22T21:18:03.540Z,9.90
2023-04-22T21:19:35.967Z,11.40
2023-04-22T21:21:08.569Z,10.05
2023-04-22T21:22:43.929Z,10.07
2023-04-22T21:24:16.244Z,11.38
2023-04-22T21:25:49.061Z,10.93
2023-04-22T21:27:22.452Z,10.02
2023-04-22T21:30:26.967Z,11.07
2023-04-22T21:32:08.597Z,9.82
2023-04-22T21:33:41.727Z,12.30
2023-04-22T21:35:13.982Z,11.75
2023-04-22T21:36:46.084Z,10.70
2023-04-22T21:38:20.101Z,11.73
2023-04-22T21:39:52.677Z,11.18
2023-04-22T21:41:24.828Z,11.10
2023-04-22T21:42:56.975Z,10.70
2023-04-22T21:44:29.068Z,12.40
2023-04-22T21:46:01.337Z,10.32
2023-04-22T21:47:33.569Z,10.02
2023-04-22T21:49:05.720Z,9.43
2023-04-22T21:50:37.850Z,10.43
2023-04-22T21:52:10.111Z,10.10
2023-04-22T21:53:42.552Z,9.27
2023-04-22T21:55:14.676Z,18.48
2023-04-22T21:56:46.726Z,12.50
2023-04-22T21:58:18.900Z,10.20
2023-04-22T21:59:51.163Z,10.82
2023-04-22T22:01:23.462Z,11.85
2023-04-22T22:02:55.722Z,9.82
2023-04-22T22:04:28.121Z,10.25
2023-04-22T22:06:00.538Z,10.05
2023-04-22T22:07:32.626Z,9.27
2023-04-22T22:09:04.914Z,10.50
2023-04-22T22:10:37.027Z,9.40
2023-04-22T22:12:10.996Z,9.20
2023-04-22T22:13:43.504Z,15.40
2023-04-22T22:15:19.538Z,11.38
2023-04-22T22:16:54.189Z,10.82
2023-04-22T22:18:26.484Z,10.10
2023-04-22T22:19:58.646Z,9.93
2023-04-22T22:21:32.015Z,12.07
2023-04-22T22:23:04.109Z,10.13
2023-04-22T22:24:36.246Z,9.52
2023-04-22T22:26:08.706Z,9.98
2023-04-22T22:27:42.120Z,10.10
2023-04-22T22:30:49.461Z,10.63
2023-04-22T22:32:21.769Z,10.57
2023-04-22T22:33:53.897Z,12.50
2023-04-22T22:35:26.016Z,18.67
2023-04-22T22:36:58.249Z,12.85
2023-04-22T22:38:30.389Z,11.45
2023-04-22T22:40:02.558Z,14.38
2023-04-22T22:41:34.724Z,13.52
2023-04-22T22:43:06.929Z,11.60
2023-04-22T22:44:39.189Z,11.68
2023-04-22T22:46:11.433Z,10.77
2023-04-22T22:47:43.613Z,12.05
2023-04-22T22:49:15.730Z,10.95
2023-04-22T22:50:49.343Z,11.30
2023-04-22T22:52:21.455Z,11.10
2023-04-22T22:53:53.612Z,10.98
2023-04-22T22:55:27.181Z,11.52
2023-04-22T22:56:59.284Z,10.75
2023-04-22T22:58:31.782Z,11.32
2023-04-22T23:00:06.248Z,9.67
2023-04-22T23:01:38.717Z,9.45
2023-04-22T23:03:11.031Z,10.83
2023-04-22T23:04:43.675Z,10.48
2023-04-22T23:06:16.171Z,10.60
2023-04-22T23:07:48.335Z,12.02
2023-04-22T23:09:20.893Z,11.30
2023-04-22T23:10:52.982Z,12.10
2023-04-22T23:12:28.253Z,11.15
2023-04-22T23:14:00.365Z,11.70
2023-04-22T23:15:32.473Z,12.82
2023-04-22T23:17:04.887Z,13.63
2023-04-22T23:18:37.553Z,10.18
2023-04-22T23:20:11.187Z,10.30
2023-04-22T23:21:44.075Z,13.82
2023-04-22T23:23:17.000Z,11.90
2023-04-22T23:24:49.496Z,10.00
2023-04-22T23:26:21.855Z,10.57
2023-04-22T23:27:54.158Z,8.88
2023-04-22T23:29:26.657Z,11.75
2023-04-22T23:30:59.204Z,10.82
2023-04-22T23:32:32.843Z,10.90
2023-04-22T23:34:06.052Z,10.57
2023-04-22T23:35:40.029Z,9.73
2023-04-22T23:37:15.111Z,11.30
2023-04-22T23:38:47.532Z,10.45
2023-04-22T23:40:19.768Z,12.00
2023-04-22T23:41:51.883Z,9.48
2023-04-22T23:43:24.188Z,13.55
2023-04-22T23:44:56.417Z,10.07
2023-04-22T23:46:28.712Z,10.68
2023-04-22T23:48:01.404Z,11.57
2023-04-22T23:49:33.578Z,10.15
2023-04-22T23:51:05.760Z,10.35
2023-04-22T23:52:41.509Z,11.25
2023-04-22T23:54:13.769Z,12.73
2023-04-22T23:55:46.056Z,10.23
2023-04-22T23:57:18.563Z,11.20
2023-04-22T23:58:51.564Z,12.45
